createdAt,value
2023-01-07T00:01:41.297Z,42.88
2023-01-07T00:04:11.645Z,32.05
2023-01-07T00:06:40.886Z,35.05
2023-01-07T00:09:12.489Z,36.40
2023-01-07T00:11:41.516Z,40.10
2023-01-07T00:14:10.498Z,39.58
2023-01-07T00:16:38.454Z,33.63
2023-01-07T00:19:07.290Z,46.25
2023-01-07T00:21:34.503Z,37.83
2023-01-07T00:24:04.111Z,22.90
2023-01-07T00:26:33.670Z,21.27
2023-01-07T00:29:00.815Z,20.17
2023-01-07T00:31:31.291Z,60.80
2023-01-07T00:33:58.411Z,24.33
2023-01-07T00:36:31.870Z,25.63
2023-01-07T00:39:08.828Z,26.33
2023-01-07T00:41:36.064Z,24.67
2023-01-07T00:44:03.352Z,34.38
2023-01-07T00:46:30.324Z,42.15
2023-01-07T00:48:57.479Z,23.48
2023-01-07T00:51:24.541Z,25.52
2023-01-07T00:53:51.531Z,24.17
2023-01-07T00:56:19.250Z,27.85
2023-01-07T00:58:46.754Z,23.42
2023-01-07T01:01:14.503Z,24.58
2023-01-07T01:03:41.984Z,22.00
2023-01-07T01:06:13.709Z,26.40
2023-01-07T01:08:47.459Z,26.70
2023-01-07T01:11:16.188Z,23.45
2023-01-07T01:13:45.099Z,26.70
2023-01-07T01:16:17.816Z,21.23
2023-01-07T01:18:45.983Z,25.73
2023-01-07T01:21:14.728Z,27.10
2023-01-07T01:23:42.904Z,27.13
2023-01-07T01:26:15.263Z,24.98
2023-01-07T01:28:43.524Z,32.47
2023-01-07T01:31:11.430Z,27.42
2023-01-07T01:33:38.363Z,62.33
2023-01-07T01:36:11.461Z,22.98
2023-01-07T01:38:38.460Z,29.25
2023-01-07T01:41:06.315Z,34.28
2023-01-07T01:43:39.882Z,28.35
2023-01-07T01:46:17.005Z,37.87
2023-01-07T01:48:53.978Z,39.35
2023-01-07T01:51:24.981Z,34.03
2023-01-07T01:53:52.473Z,42.55
2023-01-07T01:56:33.816Z,30.88
2023-01-07T01:59:07.161Z,33.38
2023-01-07T02:01:35.802Z,34.67
2023-01-07T02:04:10.783Z,40.25
2023-01-07T02:06:45.621Z,40.15
2023-01-07T02:09:13.563Z,24.33
2023-01-07T02:11:54.554Z,41.95
2023-01-07T02:14:40.162Z,29.98
2023-01-07T02:17:19.765Z,44.45
2023-01-07T02:19:59.480Z,30.00
2023-01-07T02:22:47.571Z,30.45
2023-01-07T02:25:29.485Z,31.10
2023-01-07T02:28:27.429Z,36.38
2023-01-07T02:31:18.818Z,31.90
2023-01-07T02:33:51.958Z,34.55
2023-01-07T02:36:30.332Z,34.83
2023-01-07T02:39:21.892Z,29.17
2023-01-07T02:41:59.121Z,32.40
2023-01-07T02:44:42.695Z,28.17
2023-01-07T02:47:28.657Z,35.38
2023-01-07T02:49:55.786Z,38.53
2023-01-07T02:52:28.760Z,24.75
2023-01-07T02:55:02.920Z,34.38
2023-01-07T02:58:06.769Z,25.13
2023-01-07T03:00:51.899Z,28.08
2023-01-07T03:03:37.726Z,23.52
2023-01-07T03:06:17.619Z,30.20
2023-01-07T03:09:08.526Z,37.10
2023-01-07T03:11:47.151Z,24.15
2023-01-07T03:14:26.586Z,26.65
2023-01-07T03:16:57.895Z,31.80
2023-01-07T03:19:30.581Z,32.33
2023-01-07T03:22:00.031Z,22.05
2023-01-07T03:24:28.134Z,35.80
2023-01-07T03:26:57.799Z,27.35
2023-01-07T03:29:25.275Z,28.70
2023-01-07T03:32:16.964Z,29.02
2023-01-07T03:34:45.086Z,30.17
2023-01-07T03:37:20.055Z,33.08
2023-01-07T03:39:48.457Z,30.98
2023-01-07T03:42:38.261Z,28.08
2023-01-07T03:45:10.573Z,25.92
2023-01-07T03:47:39.597Z,24.48
2023-01-07T03:50:06.837Z,25.35
2023-01-07T03:52:33.841Z,21.65
2023-01-07T03:55:00.842Z,21.60
2023-01-07T03:57:29.297Z,17.00
2023-01-07T03:59:56.238Z,28.75
2023-01-07T04:02:23.238Z,23.58
2023-01-07T04:04:50.391Z,20.70
2023-01-07T04:07:17.356Z,16.23
2023-01-07T04:09:44.331Z,24.70
2023-01-07T04:12:11.217Z,25.35
2023-01-07T04:14:38.183Z,25.55
2023-01-07T04:17:05.106Z,16.33
2023-01-07T04:19:32.129Z,18.48
2023-01-07T04:21:59.536Z,21.10
2023-01-07T04:24:26.653Z,24.90
2023-01-07T04:26:53.531Z,23.95
2023-01-07T04:29:21.055Z,18.23
2023-01-07T04:31:48.903Z,21.55
2023-01-07T04:34:15.883Z,20.80
2023-01-07T04:36:42.769Z,23.27
2023-01-07T04:39:09.758Z,17.65
2023-01-07T04:41:36.724Z,21.55
2023-01-07T04:44:03.710Z,26.98
2023-01-07T04:46:30.754Z,20.15
2023-01-07T04:48:57.712Z,23.98
2023-01-07T04:51:24.627Z,21.02
2023-01-07T04:53:51.573Z,22.67
2023-01-07T04:56:18.513Z,21.77
2023-01-07T04:58:45.441Z,17.15
2023-01-07T05:01:12.661Z,25.40
2023-01-07T05:03:39.636Z,25.48
2023-01-07T05:06:06.762Z,17.33
2023-01-07T05:08:33.721Z,23.23
2023-01-07T05:11:02.174Z,29.75
2023-01-07T05:13:31.661Z,19.73
2023-01-07T05:15:58.867Z,25.88
2023-01-07T05:18:25.828Z,27.73
2023-01-07T05:20:52.734Z,27.73
2023-01-07T05:23:19.656Z,23.38
2023-01-07T05:25:46.610Z,24.02
2023-01-07T05:28:13.627Z,33.88
2023-01-07T05:30:40.725Z,22.65
2023-01-07T05:33:08.931Z,24.17
2023-01-07T05:35:35.941Z,28.15
2023-01-07T05:38:03.045Z,22.35
2023-01-07T05:40:29.917Z,29.05
2023-01-07T05:42:56.925Z,26.52
2023-01-07T05:45:23.910Z,28.63
2023-01-07T05:47:50.873Z,32.40
2023-01-07T05:50:17.857Z,27.08
2023-01-07T05:52:44.791Z,33.30
2023-01-07T05:55:11.877Z,34.50
2023-01-07T05:57:38.799Z,25.20
2023-01-07T06:00:06.506Z,30.40
2023-01-07T06:02:33.427Z,23.67
2023-01-07T06:05:00.437Z,22.65
2023-01-07T06:07:27.615Z,25.60
2023-01-07T06:09:54.601Z,26.25
2023-01-07T06:12:21.473Z,28.00
2023-01-07T06:14:48.478Z,29.10
2023-01-07T06:17:15.483Z,30.58
2023-01-07T06:19:42.369Z,29.15
2023-01-07T06:22:09.358Z,25.58
2023-01-07T06:24:36.253Z,26.63
2023-01-07T06:27:03.181Z,28.98
2023-01-07T06:29:30.091Z,24.13
2023-01-07T06:31:57.137Z,25.00
2023-01-07T06:34:24.055Z,29.23
2023-01-07T06:36:50.985Z,27.38
2023-01-07T06:39:18.038Z,24.67
2023-01-07T06:41:44.928Z,26.25
2023-01-07T06:44:11.872Z,29.67
2023-01-07T06:46:38.814Z,30.33
2023-01-07T06:49:05.889Z,31.65
2023-01-07T06:51:32.771Z,31.58
2023-01-07T06:53:59.755Z,24.90
2023-01-07T06:56:26.667Z,25.42
2023-01-07T06:58:53.730Z,22.65
2023-01-07T07:01:20.770Z,30.38
2023-01-07T07:03:47.800Z,22.38
2023-01-07T07:06:14.728Z,30.20
2023-01-07T07:08:41.680Z,22.98
2023-01-07T07:11:08.691Z,24.55
2023-01-07T07:13:36.119Z,29.85
2023-01-07T07:16:03.133Z,32.08
2023-01-07T07:18:30.705Z,28.13
2023-01-07T07:20:58.750Z,23.98
2023-01-07T07:23:25.706Z,27.85
2023-01-07T07:25:52.743Z,24.35
2023-01-07T07:28:19.661Z,23.48
2023-01-07T07:30:48.036Z,26.90
2023-01-07T07:33:15.684Z,25.35
2023-01-07T07:35:42.896Z,21.50
2023-01-07T07:38:10.037Z,16.60
2023-01-07T07:40:37.005Z,28.17
2023-01-07T07:43:10.461Z,27.88
2023-01-07T07:45:40.302Z,18.90
2023-01-07T07:48:08.285Z,22.23
2023-01-07T07:50:36.204Z,24.13
2023-01-07T07:53:03.369Z,18.92
2023-01-07T07:55:30.668Z,22.13
2023-01-07T07:58:01.250Z,26.58
2023-01-07T08:00:28.173Z,18.52
2023-01-07T08:03:01.214Z,25.10
2023-01-07T08:05:28.363Z,24.65
2023-01-07T08:07:56.461Z,16.85
2023-01-07T08:10:24.042Z,14.52
2023-01-07T08:12:51.041Z,16.67
2023-01-07T08:15:18.058Z,20.23
2023-01-07T08:17:45.093Z,16.75
2023-01-07T08:20:12.752Z,17.50
2023-01-07T08:22:39.730Z,16.90
2023-01-07T08:25:07.055Z,21.25
2023-01-07T08:27:33.977Z,18.92
2023-01-07T08:30:00.987Z,15.50
2023-01-07T08:32:27.942Z,16.25
2023-01-07T08:34:54.906Z,17.73
2023-01-07T08:37:21.825Z,20.92
2023-01-07T08:39:48.748Z,21.40
2023-01-07T08:42:15.643Z,19.15
2023-01-07T08:44:42.605Z,15.95
2023-01-07T08:47:09.503Z,17.55
2023-01-07T08:49:36.431Z,21.50
2023-01-07T08:52:03.430Z,18.88
2023-01-07T08:54:30.386Z,19.00
2023-01-07T08:56:57.320Z,19.15
2023-01-07T08:59:24.347Z,19.27
2023-01-07T09:01:51.340Z,24.02
2023-01-07T09:04:18.314Z,13.18
2023-01-07T09:06:45.295Z,13.98
2023-01-07T09:09:14.434Z,22.35
2023-01-07T09:11:41.376Z,18.08
2023-01-07T09:14:08.408Z,18.00
2023-01-07T09:16:35.485Z,23.55
2023-01-07T09:19:02.503Z,18.02
2023-01-07T09:21:29.430Z,17.80
2023-01-07T09:23:56.361Z,22.40
2023-01-07T09:26:23.304Z,15.35
2023-01-07T09:28:50.218Z,18.52
2023-01-07T09:31:17.193Z,12.32
2023-01-07T09:33:44.185Z,22.45
2023-01-07T09:36:11.130Z,21.80
2023-01-07T09:38:38.064Z,17.02
2023-01-07T09:41:05.944Z,15.00
2023-01-07T09:43:59.691Z,17.38
2023-01-07T09:48:59.427Z,15.30
2023-01-07T09:51:39.790Z,10.32
2023-01-07T09:54:33.943Z,13.77
2023-01-07T09:57:01.025Z,12.48
2023-01-07T09:59:28.342Z,16.52
2023-01-07T10:02:14.211Z,13.50
2023-01-07T10:05:10.532Z,14.32
2023-01-07T10:07:47.874Z,16.90
2023-01-07T10:10:14.800Z,11.07
2023-01-07T10:13:19.053Z,13.20
2023-01-07T10:16:01.319Z,12.50
2023-01-07T10:18:43.528Z,11.68
2023-01-07T10:21:44.513Z,10.25
2023-01-07T10:24:24.018Z,14.90
2023-01-07T10:26:56.227Z,11.50
2023-01-07T10:29:34.030Z,16.05
2023-01-07T10:32:19.558Z,14.88
2023-01-07T10:34:49.013Z,19.20
2023-01-07T10:37:31.110Z,11.60
2023-01-07T10:40:02.723Z,16.88
2023-01-07T10:42:32.367Z,18.33
2023-01-07T10:45:15.662Z,13.35
2023-01-07T10:48:24.393Z,16.90
2023-01-07T10:51:09.082Z,16.58
2023-01-07T10:53:58.148Z,12.18
2023-01-07T10:56:39.303Z,22.55
2023-01-07T10:59:15.050Z,14.50
2023-01-07T11:01:48.764Z,15.38
2023-01-07T11:04:16.741Z,15.68
2023-01-07T11:06:55.558Z,13.50
2023-01-07T11:09:34.689Z,18.20
2023-01-07T11:12:09.049Z,17.67
2023-01-07T11:14:41.046Z,20.35
2023-01-07T11:17:18.032Z,14.48
2023-01-07T11:19:52.500Z,16.50
2023-01-07T11:24:59.444Z,12.35
2023-01-07T11:27:30.355Z,14.90
2023-01-07T11:30:19.929Z,16.92
2023-01-07T11:33:03.102Z,16.85
2023-01-07T11:35:30.190Z,15.60
2023-01-07T11:37:58.779Z,16.83
2023-01-07T11:40:31.857Z,11.68
2023-01-07T11:43:17.213Z,14.77
2023-01-07T11:46:19.706Z,15.77
2023-01-07T11:48:56.309Z,15.10
2023-01-07T11:51:24.697Z,12.80
2023-01-07T11:53:55.993Z,10.70
2023-01-07T11:56:27.650Z,13.23
2023-01-07T11:59:15.346Z,15.93
2023-01-07T12:01:53.652Z,12.10
2023-01-07T12:04:34.301Z,14.68
2023-01-07T12:07:13.969Z,12.77
2023-01-07T12:09:43.552Z,17.13
2023-01-07T12:12:31.925Z,14.93
2023-01-07T12:15:16.540Z,20.92
2023-01-07T12:17:49.572Z,25.08
2023-01-07T12:20:49.683Z,22.15
2023-01-07T12:23:30.870Z,18.17
2023-01-07T12:26:19.371Z,21.20
2023-01-07T12:28:55.332Z,16.33
2023-01-07T12:31:41.965Z,15.65
2023-01-07T12:34:38.088Z,17.30
2023-01-07T12:37:28.262Z,17.65
2023-01-07T12:40:06.912Z,16.40
2023-01-07T12:42:39.357Z,17.63
2023-01-07T12:45:16.276Z,13.55
2023-01-07T12:47:52.290Z,15.38
2023-01-07T12:50:34.861Z,16.48
2023-01-07T12:53:28.158Z,17.70
2023-01-07T12:56:03.248Z,14.13
2023-01-07T12:58:48.452Z,18.98
2023-01-07T13:01:27.520Z,22.55
2023-01-07T13:04:07.838Z,13.85
2023-01-07T13:06:48.870Z,20.65
2023-01-07T13:09:31.286Z,16.13
2023-01-07T13:12:42.259Z,16.88
2023-01-07T13:15:28.703Z,17.40
2023-01-07T13:17:58.370Z,17.77
2023-01-07T13:21:13.499Z,20.73
2023-01-07T13:23:59.134Z,16.38
2023-01-07T13:26:37.427Z,13.65
2023-01-07T13:29:13.437Z,20.52
2023-01-07T13:32:04.989Z,17.48
2023-01-07T13:34:59.009Z,14.45
2023-01-07T13:37:41.006Z,15.15
2023-01-07T13:40:23.104Z,21.20
2023-01-07T13:43:11.717Z,21.02
2023-01-07T13:45:41.235Z,26.75
2023-01-07T13:48:22.166Z,20.80
2023-01-07T13:51:01.488Z,23.45
2023-01-07T13:53:32.778Z,16.45
2023-01-07T13:56:17.978Z,17.58
2023-01-07T13:58:46.009Z,18.40
2023-01-07T14:01:17.891Z,25.45
2023-01-07T14:03:53.657Z,24.10
2023-01-07T14:06:20.832Z,17.48
2023-01-07T14:09:04.934Z,19.52
2023-01-07T14:11:36.225Z,23.83
2023-01-07T14:14:27.428Z,17.30
2023-01-07T14:17:09.624Z,21.08
2023-01-07T14:20:00.961Z,20.15
2023-01-07T14:22:42.732Z,17.13
2023-01-07T14:25:40.252Z,20.05
2023-01-07T14:28:45.850Z,21.20
2023-01-07T14:34:27.057Z,20.27
2023-01-07T14:37:06.493Z,17.65
2023-01-07T14:39:45.343Z,18.65
2023-01-07T14:42:21.198Z,20.00
2023-01-07T14:44:48.980Z,18.02
2023-01-07T14:47:44.898Z,19.95
2023-01-07T14:50:30.204Z,21.55
2023-01-07T14:52:57.064Z,20.35
2023-01-07T14:55:39.470Z,25.15
2023-01-07T14:58:15.744Z,20.75
2023-01-07T15:01:00.653Z,21.02
2023-01-07T15:04:02.820Z,21.10
2023-01-07T15:06:37.052Z,25.00
2023-01-07T15:09:27.801Z,24.02
2023-01-07T15:12:17.079Z,18.60
2023-01-07T15:15:26.754Z,22.35
2023-01-07T15:17:53.699Z,22.60
2023-01-07T15:20:20.866Z,23.52
2023-01-07T15:23:10.927Z,22.02
2023-01-07T15:26:09.018Z,18.20
2023-01-07T15:29:08.931Z,27.90
2023-01-07T15:31:50.989Z,26.23
2023-01-07T15:34:18.414Z,20.85
2023-01-07T15:36:48.895Z,27.45
2023-01-07T15:39:28.796Z,38.38
2023-01-07T15:41:57.499Z,37.95
2023-01-07T15:44:40.725Z,52.83
2023-01-07T15:47:27.037Z,49.65
2023-01-07T15:49:53.934Z,58.90
2023-01-07T15:52:26.928Z,64.65
2023-01-07T15:54:53.838Z,58.35
2023-01-07T15:57:31.867Z,70.35
2023-01-07T15:59:59.040Z,63.60
2023-01-07T16:02:29.972Z,62.92
2023-01-07T16:05:02.941Z,60.92
2023-01-07T16:07:55.717Z,62.40
2023-01-07T16:10:34.045Z,57.65
2023-01-07T16:13:06.517Z,57.72
2023-01-07T16:15:35.887Z,53.22
2023-01-07T16:18:15.996Z,55.35
2023-01-07T16:20:57.542Z,51.47
2023-01-07T16:23:31.499Z,53.40
2023-01-07T16:26:15.143Z,57.63
2023-01-07T16:28:47.663Z,48.20
2023-01-07T16:31:19.760Z,47.83
2023-01-07T16:33:50.545Z,43.70
2023-01-07T16:36:22.679Z,42.60
2023-01-07T16:42:50.432Z,43.05
2023-01-07T16:45:30.050Z,39.17
2023-01-07T16:48:13.554Z,38.20
2023-01-07T16:50:43.073Z,36.33
2023-01-07T16:53:22.644Z,37.42
2023-01-07T16:56:06.105Z,33.03
2023-01-07T16:58:53.057Z,37.30
2023-01-07T17:01:30.119Z,38.92
2023-01-07T17:03:59.831Z,42.38
2023-01-07T17:06:38.013Z,39.55
2023-01-07T17:09:06.703Z,44.05
2023-01-07T17:15:34.880Z,37.70
2023-01-07T17:18:16.933Z,38.30
2023-01-07T17:21:00.844Z,39.63
2023-01-07T17:23:27.786Z,38.07
2023-01-07T17:26:07.866Z,41.65
2023-01-07T17:28:43.434Z,42.85
2023-01-07T17:31:10.539Z,39.58
2023-01-07T17:33:37.648Z,40.65
2023-01-07T17:36:05.072Z,47.22
2023-01-07T17:38:32.284Z,49.83
2023-01-07T17:40:59.371Z,50.35
2023-01-07T17:43:37.754Z,62.70
2023-01-07T17:49:51.673Z,64.18
2023-01-07T17:52:18.650Z,48.50
2023-01-07T17:54:45.599Z,58.75
2023-01-07T17:57:12.891Z,50.90
2023-01-07T17:59:39.922Z,60.72
2023-01-07T18:02:15.877Z,73.25
2023-01-07T18:04:43.879Z,83.25
2023-01-07T18:07:16.943Z,78.03
2023-01-07T18:09:44.641Z,78.38
2023-01-07T18:12:31.134Z,93.03
2023-01-07T18:15:03.577Z,65.07
2023-01-07T18:17:30.954Z,74.03
2023-01-07T18:19:57.992Z,91.28
2023-01-07T18:22:25.526Z,124.35
2023-01-07T18:24:52.728Z,73.55
2023-01-07T18:27:22.699Z,71.68
2023-01-07T18:29:50.134Z,80.63
2023-01-07T18:32:17.247Z,78.90
2023-01-07T18:34:44.332Z,77.03
2023-01-07T18:37:11.385Z,80.25
2023-01-07T18:39:38.592Z,74.13
2023-01-07T18:42:05.730Z,71.50
2023-01-07T18:44:32.759Z,65.20
2023-01-07T18:46:59.874Z,64.57
2023-01-07T18:49:26.888Z,68.07
2023-01-07T18:51:53.867Z,76.45
2023-01-07T18:54:21.075Z,73.32
2023-01-07T18:56:48.208Z,67.80
2023-01-07T18:59:15.380Z,58.75
2023-01-07T19:01:42.809Z,59.78
2023-01-07T19:04:10.159Z,67.18
2023-01-07T19:06:37.281Z,69.90
2023-01-07T19:09:04.377Z,61.67
2023-01-07T19:11:31.684Z,65.20
2023-01-07T19:13:58.761Z,66.88
2023-01-07T19:16:25.807Z,64.57
2023-01-07T19:18:53.310Z,103.28
2023-01-07T19:21:21.551Z,120.05
2023-01-07T19:23:49.070Z,88.75
2023-01-07T19:26:16.118Z,96.45
2023-01-07T19:28:43.425Z,87.22
2023-01-07T19:31:11.557Z,76.53
2023-01-07T19:33:39.664Z,96.90
2023-01-07T19:36:11.607Z,107.88
2023-01-07T19:38:41.035Z,111.40
2023-01-07T19:41:13.172Z,111.32
2023-01-07T19:43:40.461Z,76.30
2023-01-07T19:46:08.351Z,129.48
2023-01-07T19:48:35.416Z,87.60
2023-01-07T19:51:03.818Z,102.45
2023-01-07T19:53:32.575Z,105.90
2023-01-07T19:56:08.169Z,95.50
2023-01-07T19:58:36.188Z,100.40
2023-01-07T20:01:12.644Z,128.63
2023-01-07T20:03:39.672Z,89.47
2023-01-07T20:06:10.232Z,97.10
2023-01-07T20:08:38.118Z,113.65
2023-01-07T20:11:05.376Z,99.47
2023-01-07T20:13:34.649Z,143.25
2023-01-07T20:19:48.763Z,128.52
2023-01-07T20:22:15.763Z,98.07
2023-01-07T20:24:42.800Z,116.30
2023-01-07T20:27:09.912Z,84.38
2023-01-07T20:29:38.784Z,104.75
2023-01-07T20:32:08.303Z,98.72
2023-01-07T20:34:35.387Z,109.45
2023-01-07T20:37:02.487Z,154.07
2023-01-07T20:39:29.499Z,116.85
2023-01-07T20:41:56.594Z,113.45
2023-01-07T20:44:23.683Z,124.00
2023-01-07T20:46:50.683Z,118.45
2023-01-07T20:49:17.738Z,142.50
2023-01-07T20:51:46.006Z,114.45
2023-01-07T20:54:13.782Z,95.07
2023-01-07T20:56:41.200Z,103.45
2023-01-07T20:59:08.839Z,100.50
2023-01-07T21:01:36.040Z,117.50
2023-01-07T21:04:03.362Z,116.30
2023-01-07T21:06:30.844Z,149.80
2023-01-07T21:08:57.956Z,134.95
2023-01-07T21:11:25.329Z,159.48
2023-01-07T21:13:52.744Z,125.05
2023-01-07T21:16:20.020Z,171.48
2023-01-07T21:18:47.242Z,103.10
2023-01-07T21:21:17.213Z,134.68
2023-01-07T21:23:46.892Z,113.68
2023-01-07T21:26:15.081Z,125.05
2023-01-07T21:28:44.311Z,125.18
2023-01-07T21:31:13.558Z,140.93
2023-01-07T21:33:41.254Z,108.85
2023-01-07T21:36:16.687Z,128.25
2023-01-07T21:38:44.719Z,109.32
2023-01-07T21:41:14.574Z,180.23
2023-01-07T21:43:41.790Z,111.65
2023-01-07T21:46:10.116Z,154.55
2023-01-07T21:48:40.109Z,176.50
2023-01-07T21:51:16.588Z,100.95
2023-01-07T21:53:43.575Z,96.07
2023-01-07T21:56:15.943Z,140.38
2023-01-07T21:58:44.426Z,134.57
2023-01-07T22:01:12.201Z,175.90
2023-01-07T22:03:39.633Z,108.05
2023-01-07T22:06:09.121Z,152.82
2023-01-07T22:08:36.563Z,115.32
2023-01-07T22:11:03.570Z,117.78
2023-01-07T22:13:30.569Z,127.55
2023-01-07T22:15:57.620Z,160.70
2023-01-07T22:18:24.657Z,126.30
2023-01-07T22:20:55.874Z,149.68
2023-01-07T22:23:23.244Z,123.50
2023-01-07T22:25:50.585Z,142.13
2023-01-07T22:28:19.601Z,136.32
2023-01-07T22:30:52.771Z,194.40
2023-01-07T22:33:19.866Z,146.07
2023-01-07T22:35:48.177Z,145.38
2023-01-07T22:38:15.582Z,151.48
2023-01-07T22:40:43.184Z,168.90
2023-01-07T22:43:14.579Z,156.00
2023-01-07T22:45:56.759Z,155.93
2023-01-07T22:48:27.366Z,164.52
2023-01-07T22:51:00.090Z,146.32
2023-01-07T22:53:29.258Z,135.73
2023-01-07T22:55:59.662Z,148.57
2023-01-07T22:58:26.708Z,142.90
2023-01-07T23:00:53.766Z,173.52
2023-01-07T23:03:22.317Z,198.50
2023-01-07T23:05:50.208Z,173.52
2023-01-07T23:08:18.240Z,244.55
2023-01-07T23:10:45.594Z,187.38
2023-01-07T23:13:12.839Z,239.30
2023-01-07T23:15:40.586Z,341.83
2023-01-07T23:18:09.916Z,268.88
2023-01-07T23:20:41.709Z,174.15
2023-01-07T23:23:09.428Z,292.75
2023-01-07T23:25:36.791Z,248.60
2023-01-07T23:28:04.896Z,307.63
2023-01-07T23:30:31.903Z,229.10
2023-01-07T23:32:58.940Z,238.30
2023-01-07T23:35:25.872Z,227.80
2023-01-07T23:37:52.891Z,245.73
2023-01-07T23:40:19.896Z,202.13
2023-01-07T23:42:49.243Z,186.73
2023-01-07T23:45:16.964Z,201.20
2023-01-07T23:47:44.158Z,216.45
2023-01-07T23:50:12.549Z,198.45
2023-01-07T23:52:40.117Z,184.98
2023-01-07T23:55:08.000Z,375.13
2023-01-07T23:57:34.987Z,256.05
